createdAt,value
2022-11-04T00:02:44.642Z,79.27
2022-11-04T00:06:44.358Z,79.65
2022-11-04T00:11:04.323Z,80.67
2022-11-04T00:15:23.173Z,80.64
2022-11-04T00:19:23.224Z,80.68
2022-11-04T00:23:40.834Z,80.76
2022-11-04T00:27:59.200Z,80.05
2022-11-04T00:32:16.539Z,80.78
2022-11-04T00:36:14.913Z,81.12
2022-11-04T00:40:16.394Z,80.98
2022-11-04T00:44:20.931Z,81.25
2022-11-04T00:47:55.906Z,80.53
2022-11-04T00:51:37.147Z,80.54
2022-11-04T00:55:41.324Z,80.86
2022-11-04T00:59:46.886Z,80.87
2022-11-04T01:03:48.094Z,80.56
2022-11-04T01:07:46.938Z,80.22
2022-11-04T01:11:45.728Z,80.64
2022-11-04T01:15:44.464Z,80.99
2022-11-04T01:19:45.426Z,80.34
2022-11-04T01:23:47.337Z,80.14
2022-11-04T01:27:46.277Z,80.14
2022-11-04T01:31:45.725Z,80.89
2022-11-04T01:35:49.086Z,80.31
2022-11-04T01:39:51.095Z,80.02
2022-11-04T01:43:56.924Z,80.82
2022-11-04T01:48:03.681Z,79.84
2022-11-04T01:52:32.848Z,79.57
2022-11-04T01:56:32.629Z,80.88
2022-11-04T02:00:31.361Z,80.14
2022-11-04T02:04:31.025Z,79.29
2022-11-04T02:08:30.352Z,80.38
2022-11-04T02:12:47.846Z,81.12
2022-11-04T02:16:48.897Z,80.80
2022-11-04T02:20:55.857Z,81.15
2022-11-04T02:24:56.346Z,81.07
2022-11-04T02:29:18.713Z,79.26
2022-11-04T02:33:46.451Z,78.67
2022-11-04T02:38:22.460Z,78.37
2022-11-04T02:42:29.010Z,77.77
2022-11-04T02:46:50.636Z,77.88
2022-11-04T02:51:00.125Z,78.20
2022-11-04T02:54:38.383Z,77.29
2022-11-04T02:58:16.451Z,77.22
2022-11-04T03:01:46.809Z,78.47
2022-11-04T03:05:48.379Z,78.24
2022-11-04T03:10:10.230Z,79.21
2022-11-04T03:14:16.427Z,79.35
2022-11-04T03:18:33.658Z,79.57
2022-11-04T03:22:04.687Z,79.26
2022-11-04T03:26:13.361Z,77.64
2022-11-04T03:34:22.067Z,77.70
2022-11-04T03:38:23.050Z,78.07
2022-11-04T03:42:23.819Z,78.22
2022-11-04T03:46:26.137Z,77.58
2022-11-04T03:50:07.372Z,77.10
2022-11-04T03:54:07.451Z,76.97
2022-11-04T03:58:27.881Z,77.33
2022-11-04T04:01:57.676Z,77.55
2022-11-04T04:05:33.713Z,78.61
2022-11-04T04:09:12.975Z,78.38
2022-11-04T04:13:34.411Z,79.33
2022-11-04T04:16:52.632Z,79.80
2022-11-04T04:20:55.114Z,79.60
2022-11-04T04:25:18.528Z,79.98
2022-11-04T04:29:19.112Z,80.10
2022-11-04T04:33:19.365Z,80.48
2022-11-04T04:37:28.571Z,80.76
2022-11-04T04:41:50.277Z,81.10
2022-11-04T04:45:59.869Z,81.41
2022-11-04T04:50:08.575Z,81.70
2022-11-04T04:54:27.050Z,81.84
2022-11-04T04:57:48.587Z,81.64
2022-11-04T05:01:23.319Z,81.77
2022-11-04T05:05:22.428Z,81.81
2022-11-04T05:09:23.111Z,81.95
2022-11-04T05:13:32.513Z,81.24
2022-11-04T05:17:11.910Z,81.37
2022-11-04T05:20:40.858Z,81.18
2022-11-04T05:24:44.937Z,81.25
2022-11-04T05:28:44.631Z,81.91
2022-11-04T05:32:43.024Z,81.79
2022-11-04T05:36:43.058Z,82.24
2022-11-04T05:40:49.043Z,81.52
2022-11-04T05:44:23.791Z,81.66
2022-11-04T05:48:36.363Z,81.41
2022-11-04T05:52:28.703Z,81.66
2022-11-04T05:55:39.510Z,81.27
2022-11-04T06:00:00.555Z,81.69
2022-11-04T06:03:36.614Z,81.55
2022-11-04T06:07:32.011Z,80.98
2022-11-04T06:10:45.760Z,80.83
2022-11-04T06:14:55.040Z,80.64
2022-11-04T06:18:29.575Z,80.51
2022-11-04T06:22:37.671Z,79.63
2022-11-04T06:26:36.657Z,80.75
2022-11-04T06:30:36.383Z,80.17
2022-11-04T06:34:37.502Z,80.45
2022-11-04T06:38:38.417Z,80.04
2022-11-04T06:42:40.708Z,80.12
2022-11-04T06:46:45.523Z,80.51
2022-11-04T06:50:48.377Z,80.07
2022-11-04T06:54:48.430Z,80.59
2022-11-04T06:58:51.540Z,80.16
2022-11-04T07:02:50.237Z,79.84
2022-11-04T07:06:49.027Z,79.97
2022-11-04T07:10:47.869Z,79.60
2022-11-04T07:14:46.366Z,79.19
2022-11-04T07:19:04.799Z,79.42
2022-11-04T07:22:22.658Z,79.40
2022-11-04T07:26:22.144Z,78.34
2022-11-04T07:30:21.374Z,78.06
2022-11-04T07:34:21.138Z,77.08
2022-11-04T07:38:39.040Z,76.28
2022-11-04T07:41:59.604Z,75.45
2022-11-04T07:46:10.804Z,76.01
2022-11-04T07:50:11.629Z,75.48
2022-11-04T07:54:12.474Z,75.46
2022-11-04T07:58:29.948Z,75.64
2022-11-04T08:01:48.962Z,76.43
2022-11-04T08:05:48.529Z,75.54
2022-11-04T08:09:47.612Z,76.09
2022-11-04T08:13:48.083Z,75.87
2022-11-04T08:17:47.181Z,74.63
2022-11-04T08:21:46.212Z,75.49
2022-11-04T08:25:46.105Z,75.39
2022-11-04T08:30:04.380Z,74.51
2022-11-04T08:33:25.671Z,75.15
2022-11-04T08:37:24.699Z,74.24
2022-11-04T08:41:27.162Z,74.49
2022-11-04T08:45:32.719Z,75.59
2022-11-04T08:49:42.327Z,73.31
2022-11-04T08:53:44.784Z,73.69
2022-11-04T08:57:23.289Z,72.67
2022-11-04T09:01:04.240Z,72.50
2022-11-04T09:05:08.140Z,71.39
2022-11-04T09:09:06.416Z,71.67
2022-11-04T09:12:23.117Z,71.01
2022-11-04T09:16:00.471Z,70.93
2022-11-04T09:20:07.294Z,71.48
2022-11-04T09:23:43.746Z,71.00
2022-11-04T09:27:50.928Z,71.02
2022-11-04T09:31:24.933Z,71.10
2022-11-04T09:35:05.698Z,71.12
2022-11-04T09:38:45.253Z,71.45
2022-11-04T09:42:56.334Z,70.16
2022-11-04T09:46:03.550Z,70.67
2022-11-04T09:50:15.725Z,71.13
2022-11-04T09:53:51.799Z,71.03
2022-11-04T09:57:26.104Z,70.20
2022-11-04T10:01:20.705Z,70.62
2022-11-04T10:05:42.126Z,70.45
2022-11-04T10:09:38.625Z,71.20
2022-11-04T10:12:39.552Z,71.42
2022-11-04T10:16:59.741Z,71.14
2022-11-04T10:21:05.017Z,71.38
2022-11-04T10:25:17.297Z,71.63
2022-11-04T10:29:41.734Z,71.06
2022-11-04T10:33:52.034Z,71.21
2022-11-04T10:37:59.763Z,71.83
2022-11-04T10:41:40.071Z,72.19
2022-11-04T10:45:12.593Z,73.16
2022-11-04T10:49:38.546Z,73.53
2022-11-04T10:52:51.645Z,73.22
2022-11-04T10:56:53.155Z,73.69
2022-11-04T11:01:01.293Z,74.23
2022-11-04T11:04:34.968Z,73.78
2022-11-04T11:08:39.707Z,74.71
2022-11-04T11:12:51.696Z,74.40
2022-11-04T11:16:50.689Z,74.46
2022-11-04T11:21:08.863Z,74.84
2022-11-04T11:25:30.244Z,75.36
2022-11-04T11:29:45.045Z,74.54
2022-11-04T11:33:59.316Z,74.43
2022-11-04T11:38:07.491Z,74.98
2022-11-04T11:42:16.478Z,74.69
2022-11-04T11:45:34.007Z,74.75
2022-11-04T11:49:24.809Z,75.09
2022-11-04T11:52:46.841Z,76.01
2022-11-04T11:57:30.582Z,75.60
2022-11-04T12:00:41.076Z,75.74
2022-11-04T12:11:50.373Z,76.00
2022-11-04T12:15:34.993Z,75.54
2022-11-04T12:20:15.571Z,75.49
2022-11-04T12:24:28.168Z,76.13
2022-11-04T12:29:04.360Z,76.64
2022-11-04T12:32:27.430Z,75.95
2022-11-04T12:37:06.388Z,75.71
2022-11-04T12:41:18.762Z,75.93
2022-11-04T12:45:28.249Z,76.32
2022-11-04T12:49:52.864Z,76.44
2022-11-04T12:54:07.585Z,77.32
2022-11-04T12:58:31.513Z,76.74
2022-11-04T13:02:35.427Z,76.43
2022-11-04T13:06:44.756Z,76.99
2022-11-04T13:10:56.655Z,76.79
2022-11-04T13:15:25.753Z,76.58
2022-11-04T13:18:38.131Z,77.60
2022-11-04T13:22:39.294Z,76.85
2022-11-04T13:26:38.507Z,77.38
2022-11-04T13:30:46.797Z,76.79
2022-11-04T13:35:05.597Z,76.44
2022-11-04T13:39:38.804Z,76.58
2022-11-04T13:43:23.651Z,78.05
2022-11-04T13:47:37.025Z,78.05
2022-11-04T13:52:12.138Z,77.78
2022-11-04T13:55:22.118Z,78.56
2022-11-04T13:59:32.423Z,77.90
2022-11-04T14:03:01.285Z,78.25
2022-11-04T14:07:08.881Z,78.91
2022-11-04T14:10:56.244Z,78.72
2022-11-04T14:14:19.996Z,77.52
2022-11-04T14:18:42.025Z,76.87
2022-11-04T14:22:43.839Z,77.62
2022-11-04T14:26:48.900Z,77.28
2022-11-04T14:30:52.265Z,77.48
2022-11-04T14:35:00.643Z,78.33
2022-11-04T14:39:12.576Z,77.76
2022-11-04T14:43:30.567Z,77.63
2022-11-04T14:47:33.576Z,77.99
2022-11-04T14:51:41.631Z,76.94
2022-11-04T14:55:41.444Z,76.66
2022-11-04T14:59:40.152Z,77.50
2022-11-04T15:04:10.738Z,76.51
2022-11-04T15:08:34.168Z,75.88
2022-11-04T15:12:51.365Z,75.57
2022-11-04T15:16:57.433Z,75.50
2022-11-04T15:21:04.538Z,75.54
2022-11-04T15:25:06.396Z,75.59
2022-11-04T15:29:11.933Z,75.56
2022-11-04T15:33:18.248Z,74.69
2022-11-04T15:37:18.379Z,74.45
2022-11-04T15:41:39.940Z,74.48
2022-11-04T15:45:53.777Z,74.36
2022-11-04T15:50:24.697Z,73.82
2022-11-04T15:53:35.575Z,73.67
2022-11-04T15:57:41.560Z,73.51
2022-11-04T16:01:53.381Z,73.37
2022-11-04T16:06:06.455Z,73.43
2022-11-04T16:09:32.355Z,73.90
2022-11-04T16:13:32.645Z,73.55
2022-11-04T16:17:33.649Z,73.47
2022-11-04T16:22:02.065Z,73.62
2022-11-04T16:25:22.519Z,74.08
2022-11-04T16:29:35.178Z,74.82
2022-11-04T16:33:45.017Z,74.64
2022-11-04T16:37:20.040Z,75.32
2022-11-04T16:40:56.200Z,75.38
2022-11-04T16:45:03.037Z,75.46
2022-11-04T16:49:02.753Z,75.30
2022-11-04T16:53:04.686Z,75.22
2022-11-04T16:57:07.423Z,75.20
2022-11-04T17:01:07.254Z,75.21
2022-11-04T17:05:09.126Z,75.59
2022-11-04T17:09:24.493Z,75.05
2022-11-04T17:13:37.908Z,75.73
2022-11-04T17:17:07.349Z,75.52
2022-11-04T17:21:08.462Z,75.21
2022-11-04T17:25:29.836Z,74.72
2022-11-04T17:28:47.247Z,74.69
2022-11-04T17:32:47.183Z,74.29
2022-11-04T17:36:47.330Z,74.03
2022-11-04T17:41:06.044Z,73.91
2022-11-04T17:45:05.406Z,74.24
2022-11-04T17:49:12.219Z,74.17
2022-11-04T17:53:12.546Z,74.92
2022-11-04T17:57:12.763Z,75.70
2022-11-04T18:01:14.935Z,77.00
2022-11-04T18:05:13.867Z,76.38
2022-11-04T18:09:13.311Z,75.63
2022-11-04T18:13:13.199Z,75.38
2022-11-04T18:17:36.455Z,75.47
2022-11-04T18:20:51.530Z,75.76
2022-11-04T18:24:51.229Z,74.76
2022-11-04T18:28:54.418Z,75.68
2022-11-04T18:32:56.857Z,76.23
2022-11-04T18:36:58.817Z,76.39
2022-11-04T18:41:00.588Z,76.53
2022-11-04T18:45:00.872Z,77.05
2022-11-04T18:49:06.679Z,76.82
2022-11-04T18:52:38.791Z,76.58
2022-11-04T18:56:40.419Z,76.59
2022-11-04T19:00:40.771Z,76.81
2022-11-04T19:04:41.006Z,76.87
2022-11-04T19:08:46.276Z,75.88
2022-11-04T19:13:05.071Z,76.74
2022-11-04T19:17:04.112Z,76.23
2022-11-04T19:21:09.672Z,76.00
2022-11-04T19:25:11.264Z,76.80
2022-11-04T19:29:10.825Z,75.98
2022-11-04T19:33:09.732Z,76.74
2022-11-04T19:37:10.102Z,76.45
2022-11-04T19:41:33.894Z,76.50
2022-11-04T19:45:33.551Z,75.82
2022-11-04T19:49:33.685Z,77.38
2022-11-04T19:53:34.142Z,76.67
2022-11-04T19:57:39.854Z,76.92
2022-11-04T20:01:45.324Z,76.73
2022-11-04T20:05:47.414Z,77.53
2022-11-04T20:09:47.351Z,77.17
2022-11-04T20:13:47.682Z,76.98
2022-11-04T20:17:48.765Z,76.46
2022-11-04T20:21:50.469Z,76.56
2022-11-04T20:25:51.092Z,77.42
2022-11-04T20:29:51.210Z,77.16
2022-11-04T20:33:53.240Z,76.90
2022-11-04T20:37:53.988Z,77.14
2022-11-04T20:41:54.326Z,77.10
2022-11-04T20:45:55.163Z,76.56
2022-11-04T20:49:54.821Z,76.59
2022-11-04T20:53:56.460Z,77.70
2022-11-04T20:57:57.552Z,76.78
2022-11-04T21:01:57.709Z,77.05
2022-11-04T21:06:02.735Z,77.53
2022-11-04T21:10:01.855Z,76.81
2022-11-04T21:14:06.561Z,77.30
2022-11-04T21:18:06.902Z,77.10
2022-11-04T21:22:07.342Z,77.39
2022-11-04T21:26:22.200Z,78.18
2022-11-04T21:30:21.470Z,77.81
2022-11-04T21:34:22.614Z,77.43
2022-11-04T21:37:58.102Z,77.82
2022-11-04T21:41:56.904Z,78.47
2022-11-04T21:46:04.163Z,78.78
2022-11-04T21:50:04.545Z,78.45
2022-11-04T21:54:07.233Z,77.86
2022-11-04T21:58:06.493Z,78.71
2022-11-04T22:02:06.929Z,78.78
2022-11-04T22:06:09.439Z,79.19
2022-11-04T22:10:28.223Z,78.65
2022-11-04T22:14:07.737Z,78.35
2022-11-04T22:17:24.168Z,78.77
2022-11-04T22:21:24.261Z,78.97
2022-11-04T22:25:23.306Z,79.01
2022-11-04T22:29:21.706Z,79.07
2022-11-04T22:33:20.998Z,79.39
2022-11-04T22:37:19.649Z,80.02
2022-11-04T22:41:23.765Z,80.16
2022-11-04T22:45:22.781Z,79.62
2022-11-04T22:49:21.782Z,79.50
2022-11-04T22:53:20.731Z,79.62
2022-11-04T22:57:21.695Z,80.19
2022-11-04T23:01:06.714Z,80.64
2022-11-04T23:05:06.140Z,80.15
2022-11-04T23:09:05.443Z,80.90
2022-11-04T23:13:22.761Z,81.07
2022-11-04T23:17:41.379Z,80.28
2022-11-04T23:21:58.607Z,80.68
2022-11-04T23:25:57.685Z,81.04
2022-11-04T23:30:15.226Z,82.47
2022-11-04T23:34:36.228Z,83.15
2022-11-04T23:38:38.238Z,83.97
2022-11-04T23:42:37.057Z,84.03
2022-11-04T23:46:54.102Z,84.17
2022-11-04T23:51:18.651Z,83.98
2022-11-04T23:54:49.183Z,84.18
2022-11-04T23:59:11.885Z,84.49
